createdAt,value
2024-02-27T00:00:44.892Z,98.71
2024-02-27T00:01:44.763Z,98.35
2024-02-27T00:02:44.751Z,98.35
2024-02-27T00:03:44.764Z,97.94
2024-02-27T00:04:44.732Z,97.58
2024-02-27T00:05:44.804Z,98.35
2024-02-27T00:06:44.970Z,98.03
2024-02-27T00:07:44.837Z,97.83
2024-02-27T00:08:44.683Z,97.83
2024-02-27T00:09:44.699Z,98.10
2024-02-27T00:10:44.705Z,97.63
2024-02-27T00:11:44.727Z,96.80
2024-02-27T00:12:44.714Z,96.70
2024-02-27T00:13:44.632Z,96.70
2024-02-27T00:14:44.620Z,96.80
2024-02-27T00:15:44.736Z,97.11
2024-02-27T00:16:44.637Z,97.52
2024-02-27T00:17:44.653Z,97.89
2024-02-27T00:18:44.724Z,97.83
2024-02-27T00:19:44.651Z,97.83
2024-02-27T00:20:44.589Z,98.14
2024-02-27T00:21:44.689Z,97.94
2024-02-27T00:22:44.531Z,97.68
2024-02-27T00:23:44.647Z,97.73
2024-02-27T00:24:44.627Z,98.24
2024-02-27T00:25:44.498Z,97.63
2024-02-27T00:26:44.804Z,97.52
2024-02-27T00:27:44.555Z,97.83
2024-02-27T00:28:44.471Z,96.49
2024-02-27T00:29:44.472Z,97.01
2024-02-27T00:30:44.471Z,96.70
2024-02-27T00:31:44.440Z,97.31
2024-02-27T00:32:44.538Z,97.06
2024-02-27T00:33:44.595Z,97.73
2024-02-27T00:34:44.521Z,97.83
2024-02-27T00:35:44.502Z,98.14
2024-02-27T00:36:44.541Z,97.63
2024-02-27T00:37:44.410Z,98.14
2024-02-27T00:38:44.429Z,98.14
2024-02-27T00:39:44.508Z,98.03
2024-02-27T00:40:44.352Z,98.03
2024-02-27T00:41:44.334Z,97.94
2024-02-27T00:42:44.379Z,98.03
2024-02-27T00:43:44.300Z,98.03
2024-02-27T00:44:44.306Z,97.73
2024-02-27T00:45:44.391Z,97.21
2024-02-27T00:46:44.380Z,97.83
2024-02-27T00:47:44.288Z,97.83
2024-02-27T00:48:44.453Z,98.14
2024-02-27T00:49:44.327Z,98.03
2024-02-27T00:50:44.227Z,98.35
2024-02-27T00:51:44.285Z,98.24
2024-02-27T00:52:44.220Z,98.03
2024-02-27T00:53:44.206Z,98.14
2024-02-27T00:54:44.310Z,98.66
2024-02-27T00:55:44.382Z,98.66
2024-02-27T00:56:44.161Z,98.35
2024-02-27T00:57:44.201Z,98.24
2024-02-27T00:58:44.148Z,98.86
2024-02-27T00:59:44.141Z,98.30
2024-02-27T01:00:44.220Z,98.92
2024-02-27T01:01:44.114Z,98.61
2024-02-27T01:02:44.102Z,98.82
2024-02-27T01:03:44.196Z,98.71
2024-02-27T01:04:44.127Z,99.23
2024-02-27T01:05:44.204Z,99.23
2024-02-27T01:06:44.144Z,99.02
2024-02-27T01:07:44.043Z,99.13
2024-02-27T01:08:44.036Z,99.33
2024-02-27T01:09:44.085Z,99.43
2024-02-27T01:10:44.020Z,99.54
2024-02-27T01:11:44.154Z,98.82
2024-02-27T01:12:44.131Z,99.33
2024-02-27T01:13:43.980Z,99.33
2024-02-27T01:14:43.981Z,99.64
2024-02-27T01:15:44.012Z,99.13
2024-02-27T01:16:43.947Z,99.33
2024-02-27T01:17:43.958Z,99.27
2024-02-27T01:18:44.014Z,99.69
2024-02-27T01:19:44.030Z,99.79
2024-02-27T01:20:43.901Z,99.79
2024-02-27T01:21:44.055Z,99.90
2024-02-27T01:22:43.894Z,99.99
2024-02-27T01:23:43.903Z,99.99
2024-02-27T01:24:43.930Z,99.99
2024-02-27T01:25:43.865Z,99.99
2024-02-27T01:26:43.849Z,99.99
2024-02-27T01:27:43.972Z,99.99
2024-02-27T01:28:43.826Z,99.85
2024-02-27T01:29:43.828Z,99.99
2024-02-27T01:30:43.922Z,99.99
2024-02-27T01:31:43.781Z,99.95
2024-02-27T01:32:43.774Z,99.99
2024-02-27T01:33:43.952Z,99.99
2024-02-27T01:34:43.921Z,99.99
2024-02-27T01:35:43.753Z,99.99
2024-02-27T01:36:43.842Z,99.99
2024-02-27T01:37:43.723Z,99.99
2024-02-27T01:38:43.746Z,99.99
2024-02-27T01:39:43.783Z,99.99
2024-02-27T01:40:43.712Z,99.99
2024-02-27T01:41:43.674Z,99.99
2024-02-27T01:42:43.727Z,99.99
2024-02-27T01:43:43.777Z,99.99
2024-02-27T01:44:43.640Z,99.99
2024-02-27T01:45:43.692Z,99.99
2024-02-27T01:46:43.639Z,99.99
2024-02-27T01:47:43.654Z,99.99
2024-02-27T01:48:43.730Z,99.90
2024-02-27T01:49:43.612Z,99.99
2024-02-27T01:50:43.614Z,99.99
2024-02-27T01:51:43.611Z,99.99
2024-02-27T01:52:43.572Z,99.99
2024-02-27T01:53:43.552Z,99.99
2024-02-27T01:54:43.579Z,99.99
2024-02-27T01:55:43.527Z,99.99
2024-02-27T01:56:43.551Z,99.99
2024-02-27T01:57:43.577Z,99.79
2024-02-27T01:58:43.522Z,99.99
2024-02-27T01:59:43.593Z,99.99
2024-02-27T02:00:43.621Z,99.99
2024-02-27T02:01:43.477Z,99.99
2024-02-27T02:02:43.445Z,99.99
2024-02-27T02:03:43.606Z,99.38
2024-02-27T02:04:43.558Z,99.17
2024-02-27T02:05:43.483Z,99.38
2024-02-27T02:06:43.773Z,98.80
2024-02-27T02:07:43.393Z,99.17
2024-02-27T02:08:43.376Z,98.97
2024-02-27T02:09:43.411Z,98.66
2024-02-27T02:10:43.418Z,98.76
2024-02-27T02:11:43.351Z,98.45
2024-02-27T02:12:43.425Z,98.03
2024-02-27T02:13:43.329Z,97.83
2024-02-27T02:14:43.314Z,97.67
2024-02-27T02:15:43.532Z,98.03
2024-02-27T02:16:43.330Z,98.03
2024-02-27T02:17:43.343Z,98.14
2024-02-27T02:18:43.386Z,98.19
2024-02-27T02:19:43.297Z,97.94
2024-02-27T02:20:43.256Z,98.14
2024-02-27T02:21:43.310Z,98.14
2024-02-27T02:22:43.229Z,97.73
2024-02-27T02:23:43.253Z,98.14
2024-02-27T02:24:43.304Z,98.03
2024-02-27T02:25:43.209Z,98.03
2024-02-27T02:26:43.196Z,98.03
2024-02-27T02:27:43.199Z,97.83
2024-02-27T02:28:43.159Z,98.03
2024-02-27T02:29:43.167Z,98.03
2024-02-27T02:30:43.278Z,97.83
2024-02-27T02:31:43.240Z,98.14
2024-02-27T02:32:43.132Z,98.24
2024-02-27T02:33:43.285Z,97.94
2024-02-27T02:34:43.157Z,98.03
2024-02-27T02:35:43.083Z,97.94
2024-02-27T02:36:43.139Z,97.73
2024-02-27T02:37:43.071Z,98.03
2024-02-27T02:38:43.072Z,97.73
2024-02-27T02:39:43.080Z,97.83
2024-02-27T02:40:43.029Z,97.42
2024-02-27T02:41:43.014Z,96.91
2024-02-27T02:42:43.066Z,97.11
2024-02-27T02:43:43.131Z,97.73
2024-02-27T02:44:42.987Z,97.83
2024-02-27T02:45:43.046Z,98.14
2024-02-27T02:46:42.970Z,97.83
2024-02-27T02:47:43.099Z,98.14
2024-02-27T02:48:43.079Z,97.83
2024-02-27T02:49:43.139Z,97.94
2024-02-27T02:50:42.929Z,97.83
2024-02-27T02:51:42.957Z,98.03
2024-02-27T02:52:42.902Z,97.83
2024-02-27T02:53:42.943Z,97.94
2024-02-27T02:54:42.950Z,98.03
2024-02-27T02:55:42.871Z,97.94
2024-02-27T02:56:42.851Z,98.03
2024-02-27T02:57:42.929Z,98.14
2024-02-27T02:58:42.862Z,98.45
2024-02-27T02:59:42.857Z,98.86
2024-02-27T03:00:43.057Z,98.24
2024-02-27T03:01:42.825Z,98.35
2024-02-27T03:02:42.807Z,98.86
2024-02-27T03:03:43.001Z,98.45
2024-02-27T03:04:42.827Z,98.45
2024-02-27T03:05:42.774Z,98.29
2024-02-27T03:06:42.926Z,98.86
2024-02-27T03:07:42.757Z,98.55
2024-02-27T03:08:42.728Z,98.86
2024-02-27T03:09:42.766Z,98.80
2024-02-27T03:10:42.706Z,98.76
2024-02-27T03:11:42.691Z,99.07
2024-02-27T03:12:42.759Z,98.76
2024-02-27T03:13:42.671Z,98.55
2024-02-27T03:14:42.663Z,98.97
2024-02-27T03:15:42.692Z,99.27
2024-02-27T03:16:42.636Z,98.76
2024-02-27T03:17:42.673Z,98.66
2024-02-27T03:18:42.831Z,98.76
2024-02-27T03:19:42.846Z,98.76
2024-02-27T03:20:42.617Z,99.07
2024-02-27T03:21:42.609Z,99.58
2024-02-27T03:22:42.571Z,99.38
2024-02-27T03:23:42.564Z,99.58
2024-02-27T03:24:42.622Z,99.58
2024-02-27T03:25:42.564Z,99.38
2024-02-27T03:26:42.526Z,99.07
2024-02-27T03:27:42.679Z,99.38
2024-02-27T03:28:42.515Z,99.33
2024-02-27T03:29:42.516Z,99.48
2024-02-27T03:30:43.289Z,99.38
2024-02-27T03:31:42.470Z,99.69
2024-02-27T03:32:42.473Z,99.64
2024-02-27T03:33:42.651Z,99.48
2024-02-27T03:34:42.588Z,99.43
2024-02-27T03:35:42.540Z,99.64
2024-02-27T03:36:42.534Z,99.64
2024-02-27T03:37:42.421Z,99.33
2024-02-27T03:38:42.396Z,99.33
2024-02-27T03:39:42.423Z,99.43
2024-02-27T03:40:42.396Z,99.69
2024-02-27T03:41:42.366Z,99.69
2024-02-27T03:42:42.457Z,99.38
2024-02-27T03:43:42.353Z,99.58
2024-02-27T03:44:42.328Z,99.27
2024-02-27T03:45:42.405Z,98.86
2024-02-27T03:46:42.305Z,98.86
2024-02-27T03:47:42.342Z,99.27
2024-02-27T03:48:42.501Z,99.38
2024-02-27T03:49:42.425Z,99.38
2024-02-27T03:50:42.262Z,99.07
2024-02-27T03:51:42.407Z,99.48
2024-02-27T03:52:42.243Z,99.17
2024-02-27T03:53:42.261Z,99.17
2024-02-27T03:54:42.233Z,99.58
2024-02-27T03:55:42.208Z,98.66
2024-02-27T03:56:42.197Z,99.07
2024-02-27T03:57:42.235Z,99.17
2024-02-27T03:58:42.171Z,98.45
2024-02-27T03:59:42.186Z,98.45
2024-02-27T04:00:42.262Z,98.45
2024-02-27T04:01:42.221Z,98.91
2024-02-27T04:02:42.129Z,99.11
2024-02-27T04:03:42.207Z,99.01
2024-02-27T04:04:42.136Z,98.86
2024-02-27T04:05:42.157Z,98.76
2024-02-27T04:06:42.205Z,98.91
2024-02-27T04:07:42.238Z,98.80
2024-02-27T04:08:42.074Z,98.91
2024-02-27T04:09:42.169Z,98.80
2024-02-27T04:10:42.176Z,99.11
2024-02-27T04:11:42.069Z,99.11
2024-02-27T04:12:42.077Z,98.29
2024-02-27T04:13:42.010Z,98.70
2024-02-27T04:14:42.024Z,98.60
2024-02-27T04:15:42.071Z,99.26
2024-02-27T04:16:42.020Z,98.91
2024-02-27T04:17:41.977Z,99.06
2024-02-27T04:18:42.082Z,98.91
2024-02-27T04:19:42.037Z,98.70
2024-02-27T04:20:41.950Z,99.01
2024-02-27T04:21:41.944Z,98.45
2024-02-27T04:22:41.927Z,98.97
2024-02-27T04:23:42.035Z,99.43
2024-02-27T04:24:41.920Z,98.97
2024-02-27T04:25:41.882Z,98.60
2024-02-27T04:26:41.871Z,98.50
2024-02-27T04:27:41.869Z,98.29
2024-02-27T04:28:41.904Z,98.29
2024-02-27T04:29:41.884Z,98.70
2024-02-27T04:30:41.830Z,98.39
2024-02-27T04:31:41.829Z,98.08
2024-02-27T04:32:41.867Z,98.08
2024-02-27T04:33:42.009Z,98.19
2024-02-27T04:34:41.844Z,98.70
2024-02-27T04:35:41.801Z,98.39
2024-02-27T04:36:41.762Z,98.80
2024-02-27T04:37:41.750Z,98.70
2024-02-27T04:38:41.740Z,99.07
2024-02-27T04:39:41.876Z,98.80
2024-02-27T04:40:41.733Z,98.70
2024-02-27T04:41:41.735Z,98.50
2024-02-27T04:42:41.706Z,98.91
2024-02-27T04:43:41.686Z,99.01
2024-02-27T04:44:41.703Z,99.22
2024-02-27T04:45:41.701Z,99.07
2024-02-27T04:46:41.651Z,99.07
2024-02-27T04:47:41.721Z,99.11
2024-02-27T04:48:41.764Z,98.29
2024-02-27T04:49:41.700Z,98.91
2024-02-27T04:50:41.617Z,98.39
2024-02-27T04:51:41.629Z,98.19
2024-02-27T04:52:41.583Z,98.39
2024-02-27T04:53:41.602Z,98.29
2024-02-27T04:54:41.584Z,98.91
2024-02-27T04:55:41.680Z,98.08
2024-02-27T04:56:41.553Z,98.39
2024-02-27T04:57:41.552Z,98.29
2024-02-27T04:58:41.518Z,98.50
2024-02-27T04:59:41.530Z,98.08
2024-02-27T05:00:41.600Z,98.08
2024-02-27T05:01:41.487Z,98.29
2024-02-27T05:02:41.499Z,97.98
2024-02-27T05:03:41.544Z,98.08
2024-02-27T05:04:41.476Z,98.19
2024-02-27T05:05:41.462Z,98.19
2024-02-27T05:06:41.484Z,97.77
2024-02-27T05:07:41.466Z,98.19
2024-02-27T05:08:41.418Z,98.19
2024-02-27T05:09:41.399Z,98.08
2024-02-27T05:10:41.419Z,98.08
2024-02-27T05:11:41.504Z,97.72
2024-02-27T05:12:41.368Z,98.02
2024-02-27T05:13:41.377Z,98.23
2024-02-27T05:14:41.366Z,97.82
2024-02-27T05:15:41.398Z,98.23
2024-02-27T05:16:41.329Z,97.88
2024-02-27T05:17:41.390Z,97.47
2024-02-27T05:18:41.384Z,98.08
2024-02-27T05:19:41.363Z,97.61
2024-02-27T05:20:41.292Z,97.92
2024-02-27T05:21:41.313Z,97.82
2024-02-27T05:22:41.260Z,97.51
2024-02-27T05:23:41.270Z,97.61
2024-02-27T05:24:41.276Z,98.19
2024-02-27T05:25:41.244Z,98.13
2024-02-27T05:26:41.212Z,98.23
2024-02-27T05:27:41.359Z,98.13
2024-02-27T05:28:41.221Z,98.44
2024-02-27T05:29:41.208Z,98.19
2024-02-27T05:30:41.250Z,98.33
2024-02-27T05:31:41.162Z,98.29
2024-02-27T05:32:41.204Z,98.19
2024-02-27T05:33:41.295Z,97.72
2024-02-27T05:34:41.459Z,97.09
2024-02-27T05:35:41.174Z,97.92
2024-02-27T05:36:41.240Z,97.30
2024-02-27T05:37:41.099Z,97.61
2024-02-27T05:38:41.085Z,97.09
2024-02-27T05:39:41.117Z,97.20
2024-02-27T05:40:41.114Z,97.30
2024-02-27T05:41:41.094Z,97.61
2024-02-27T05:42:41.091Z,96.64
2024-02-27T05:43:41.150Z,96.58
2024-02-27T05:44:41.021Z,97.09
2024-02-27T05:45:41.029Z,96.58
2024-02-27T05:46:41.089Z,96.79
2024-02-27T05:47:41.080Z,96.99
2024-02-27T05:48:41.087Z,96.58
2024-02-27T05:49:41.006Z,96.83
2024-02-27T05:50:40.978Z,97.34
2024-02-27T05:51:41.095Z,97.25
2024-02-27T05:52:40.979Z,97.14
2024-02-27T05:53:40.942Z,97.55
2024-02-27T05:54:41.096Z,98.07
2024-02-27T05:55:40.914Z,97.14
2024-02-27T05:56:40.889Z,97.66
2024-02-27T05:57:40.935Z,97.97
2024-02-27T05:58:40.864Z,98.07
2024-02-27T05:59:40.990Z,97.97
2024-02-27T06:00:40.905Z,97.86
2024-02-27T06:01:40.900Z,98.18
2024-02-27T06:02:40.823Z,98.38
2024-02-27T06:03:40.859Z,98.07
2024-02-27T06:04:40.896Z,98.38
2024-02-27T06:05:40.849Z,97.97
2024-02-27T06:06:40.909Z,98.01
2024-02-27T06:07:40.821Z,97.97
2024-02-27T06:08:40.828Z,98.28
2024-02-27T06:09:40.847Z,98.07
2024-02-27T06:10:40.800Z,98.28
2024-02-27T06:11:40.784Z,98.18
2024-02-27T06:12:40.779Z,98.01
2024-02-27T06:13:40.697Z,98.43
2024-02-27T06:14:40.691Z,98.43
2024-02-27T06:15:40.869Z,98.22
2024-02-27T06:16:40.678Z,98.22
2024-02-27T06:17:40.695Z,98.32
2024-02-27T06:18:40.690Z,98.32
2024-02-27T06:19:40.673Z,98.53
2024-02-27T06:20:40.630Z,98.84
2024-02-27T06:21:40.717Z,98.63
2024-02-27T06:22:40.604Z,98.74
2024-02-27T06:23:40.609Z,98.74
2024-02-27T06:24:40.735Z,98.32
2024-02-27T06:25:42.610Z,98.22
2024-02-27T06:26:40.578Z,97.91
2024-02-27T06:27:40.760Z,97.96
2024-02-27T06:28:40.561Z,98.06
2024-02-27T06:29:40.554Z,98.16
2024-02-27T06:30:40.581Z,98.27
2024-02-27T06:31:40.639Z,98.53
2024-02-27T06:32:40.524Z,99.05
2024-02-27T06:33:40.697Z,98.47
2024-02-27T06:34:41.025Z,98.74
2024-02-27T06:35:40.525Z,98.63
2024-02-27T06:36:40.518Z,98.32
2024-02-27T06:37:40.444Z,98.27
2024-02-27T06:38:40.428Z,98.01
2024-02-27T06:39:40.456Z,98.11
2024-02-27T06:40:40.432Z,97.91
2024-02-27T06:41:40.426Z,98.11
2024-02-27T06:42:40.457Z,98.43
2024-02-27T06:43:40.388Z,97.71
2024-02-27T06:44:40.405Z,98.11
2024-02-27T06:45:40.362Z,98.43
2024-02-27T06:46:40.352Z,98.32
2024-02-27T06:47:40.565Z,97.91
2024-02-27T06:48:40.478Z,97.91
2024-02-27T06:49:40.361Z,98.22
2024-02-27T06:50:40.305Z,98.11
2024-02-27T06:51:40.344Z,98.16
2024-02-27T06:52:40.277Z,97.96
2024-02-27T06:53:40.351Z,97.75
2024-02-27T06:54:40.370Z,98.16
2024-02-27T06:55:40.252Z,98.16
2024-02-27T06:56:40.235Z,97.96
2024-02-27T06:57:40.260Z,98.37
2024-02-27T06:58:40.210Z,98.47
2024-02-27T06:59:40.245Z,98.63
2024-02-27T07:00:40.336Z,98.53
2024-02-27T07:01:40.183Z,98.43
2024-02-27T07:02:40.188Z,98.84
2024-02-27T07:03:40.409Z,98.01
2024-02-27T07:04:40.275Z,98.16
2024-02-27T07:05:47.238Z,98.32
2024-02-27T07:06:41.257Z,97.91
2024-02-27T07:07:40.116Z,97.91
2024-02-27T07:08:41.479Z,98.37
2024-02-27T07:09:40.118Z,98.22
2024-02-27T07:10:40.101Z,98.11
2024-02-27T07:11:40.097Z,97.81
2024-02-27T07:12:40.088Z,97.91
2024-02-27T07:13:40.061Z,98.01
2024-02-27T07:14:40.050Z,98.32
2024-02-27T07:15:40.128Z,98.78
2024-02-27T07:16:40.052Z,98.88
2024-02-27T07:17:40.114Z,98.88
2024-02-27T07:18:40.053Z,98.43
2024-02-27T07:19:40.140Z,98.88
2024-02-27T07:20:39.999Z,98.68
2024-02-27T07:21:40.032Z,98.88
2024-02-27T07:22:39.957Z,98.47
2024-02-27T07:23:39.949Z,98.78
2024-02-27T07:24:40.244Z,98.68
2024-02-27T07:25:39.925Z,98.78
2024-02-27T07:26:39.906Z,98.43
2024-02-27T07:27:40.046Z,98.43
2024-02-27T07:28:39.894Z,98.01
2024-02-27T07:29:39.898Z,98.07
2024-02-27T07:30:39.951Z,98.38
2024-02-27T07:31:39.964Z,97.66
2024-02-27T07:32:39.912Z,97.55
2024-02-27T07:33:40.003Z,97.55
2024-02-27T07:34:39.848Z,96.79
2024-02-27T07:35:39.943Z,97.09
2024-02-27T07:36:39.849Z,96.79
2024-02-27T07:37:43.343Z,96.69
2024-02-27T07:39:00.992Z,96.27
2024-02-27T07:39:39.920Z,96.48
2024-02-27T07:40:39.762Z,96.02
2024-02-27T07:41:39.783Z,95.34
2024-02-27T07:42:39.868Z,94.89
2024-02-27T07:43:39.901Z,94.84
2024-02-27T07:44:40.743Z,94.43
2024-02-27T07:45:39.810Z,94.23
2024-02-27T07:46:40.659Z,94.02
2024-02-27T07:47:39.755Z,93.87
2024-02-27T07:48:39.751Z,93.98
2024-02-27T07:49:39.674Z,93.11
2024-02-27T07:50:39.648Z,92.55
2024-02-27T07:51:39.785Z,91.31
2024-02-27T07:52:39.687Z,90.96
2024-02-27T07:53:39.613Z,91.47
2024-02-27T07:54:39.694Z,90.34
2024-02-27T07:55:39.598Z,89.42
2024-02-27T07:56:39.639Z,90.45
2024-02-27T07:57:39.652Z,89.73
2024-02-27T07:58:39.577Z,89.58
2024-02-27T07:59:39.573Z,89.94
2024-02-27T08:00:39.669Z,89.83
2024-02-27T08:01:39.603Z,90.66
2024-02-27T08:02:39.541Z,90.51
2024-02-27T08:03:39.629Z,90.34
2024-02-27T08:04:39.573Z,89.69
2024-02-27T08:05:39.559Z,89.07
2024-02-27T08:06:42.884Z,89.64
2024-02-27T08:07:39.573Z,88.72
2024-02-27T08:08:40.218Z,88.72
2024-02-27T08:09:39.623Z,88.10
2024-02-27T08:10:39.433Z,88.51
2024-02-27T08:11:39.525Z,88.06
2024-02-27T08:12:39.488Z,87.96
2024-02-27T08:13:39.436Z,87.85
2024-02-27T08:14:39.387Z,87.65
2024-02-27T08:15:39.497Z,87.55
2024-02-27T08:16:39.377Z,87.49
2024-02-27T08:17:39.384Z,87.28
2024-02-27T08:18:39.450Z,87.49
2024-02-27T08:19:39.483Z,87.69
2024-02-27T08:20:39.333Z,87.90
2024-02-27T08:21:39.464Z,87.59
2024-02-27T08:22:39.313Z,87.90
2024-02-27T08:23:39.446Z,87.34
2024-02-27T08:24:39.413Z,87.65
2024-02-27T08:25:39.263Z,87.55
2024-02-27T08:26:39.264Z,86.32
2024-02-27T08:27:39.310Z,85.90
2024-02-27T08:28:39.247Z,85.28
2024-02-27T08:29:39.233Z,85.46
2024-02-27T08:30:39.232Z,84.98
2024-02-27T08:31:39.263Z,85.28
2024-02-27T08:32:40.235Z,85.49
2024-02-27T08:33:39.391Z,84.26
2024-02-27T08:34:39.297Z,85.46
2024-02-27T08:35:39.204Z,86.17
2024-02-27T08:36:39.275Z,85.93
2024-02-27T08:37:39.148Z,85.62
2024-02-27T08:38:39.129Z,85.11
2024-02-27T08:39:39.445Z,85.41
2024-02-27T08:40:39.111Z,85.47
2024-02-27T08:41:39.122Z,85.72
2024-02-27T08:42:39.254Z,85.21
2024-02-27T08:43:39.653Z,85.89
2024-02-27T08:44:39.054Z,85.89
2024-02-27T08:45:39.290Z,85.47
2024-02-27T08:46:39.054Z,85.06
2024-02-27T08:47:39.061Z,85.27
2024-02-27T08:48:39.244Z,84.04
2024-02-27T08:49:39.121Z,85.52
2024-02-27T08:50:39.015Z,85.11
2024-02-27T08:51:39.097Z,85.46
2024-02-27T08:52:38.983Z,85.76
2024-02-27T08:53:38.980Z,86.07
2024-02-27T08:54:39.007Z,86.58
2024-02-27T08:55:39.105Z,86.21
2024-02-27T08:56:38.961Z,86.17
2024-02-27T08:57:39.068Z,86.52
2024-02-27T08:58:38.909Z,86.68
2024-02-27T08:59:38.926Z,87.55
2024-02-27T09:00:38.980Z,87.71
2024-02-27T09:01:38.911Z,88.02
2024-02-27T09:02:38.919Z,88.12
2024-02-27T09:03:38.968Z,87.40
2024-02-27T09:04:38.904Z,86.95
2024-02-27T09:05:38.851Z,85.93
2024-02-27T09:06:38.883Z,86.03
2024-02-27T09:07:38.884Z,86.24
2024-02-27T09:08:38.848Z,86.09
2024-02-27T09:09:38.861Z,85.89
2024-02-27T09:10:38.791Z,85.64
2024-02-27T09:11:38.951Z,85.33
2024-02-27T09:12:38.854Z,84.96
2024-02-27T09:13:38.759Z,85.17
2024-02-27T09:14:38.823Z,86.03
2024-02-27T09:15:38.770Z,85.31
2024-02-27T09:16:38.742Z,85.21
2024-02-27T09:17:38.747Z,85.21
2024-02-27T09:18:38.786Z,86.07
2024-02-27T09:19:38.937Z,86.38
2024-02-27T09:20:38.701Z,87.61
2024-02-27T09:21:38.898Z,87.16
2024-02-27T09:22:38.650Z,90.77
2024-02-27T09:23:38.658Z,90.32
2024-02-27T09:24:38.732Z,85.50
2024-02-27T09:25:38.618Z,84.10
2024-02-27T09:26:38.612Z,84.41
2024-02-27T09:27:39.185Z,84.41
2024-02-27T09:28:38.591Z,84.17
2024-02-27T09:29:39.137Z,83.34
2024-02-27T09:30:38.612Z,83.25
2024-02-27T09:31:38.578Z,82.97
2024-02-27T09:32:38.751Z,82.36
2024-02-27T09:33:38.779Z,82.73
2024-02-27T09:34:38.566Z,83.10
2024-02-27T09:35:38.511Z,82.59
2024-02-27T09:36:38.550Z,82.65
2024-02-27T09:37:38.498Z,82.21
2024-02-27T09:38:38.479Z,81.59
2024-02-27T09:39:47.723Z,80.94
2024-02-27T09:40:39.452Z,80.22
2024-02-27T09:41:38.464Z,79.98
2024-02-27T09:42:38.465Z,79.78
2024-02-27T09:43:38.548Z,80.19
2024-02-27T09:44:38.421Z,79.57
2024-02-27T09:45:38.434Z,78.86
2024-02-27T09:46:38.407Z,78.34
2024-02-27T09:47:38.412Z,78.69
2024-02-27T09:48:38.598Z,78.86
2024-02-27T09:49:43.923Z,78.65
2024-02-27T09:50:39.341Z,79.68
2024-02-27T09:51:38.390Z,80.29
2024-02-27T09:52:38.357Z,79.57
2024-02-27T09:53:38.302Z,79.88
2024-02-27T09:54:38.435Z,79.53
2024-02-27T09:55:38.279Z,80.35
2024-02-27T09:56:38.273Z,79.94
2024-02-27T09:57:38.314Z,79.60
2024-02-27T09:58:38.281Z,78.65
2024-02-27T09:59:38.351Z,79.78
2024-02-27T10:00:38.423Z,80.56
2024-02-27T10:01:38.320Z,79.88
2024-02-27T10:02:38.274Z,79.84
2024-02-27T10:03:38.275Z,80.52
2024-02-27T10:04:38.235Z,78.99
2024-02-27T10:05:38.227Z,78.78
2024-02-27T10:06:38.224Z,78.23
2024-02-27T10:07:38.182Z,78.07
2024-02-27T10:08:38.174Z,78.03
2024-02-27T10:09:38.226Z,78.44
2024-02-27T10:10:38.180Z,79.77
2024-02-27T10:11:38.113Z,78.88
2024-02-27T10:12:38.275Z,79.39
2024-02-27T10:13:38.098Z,79.60
2024-02-27T10:14:38.161Z,78.00
2024-02-27T10:15:38.172Z,79.13
2024-02-27T10:16:38.082Z,78.31
2024-02-27T10:17:38.078Z,79.53
2024-02-27T10:18:38.321Z,78.92
2024-02-27T10:19:38.326Z,78.75
2024-02-27T10:20:38.133Z,80.76
2024-02-27T10:21:38.130Z,78.78
2024-02-27T10:22:38.044Z,78.78
2024-02-27T10:23:37.982Z,79.66
2024-02-27T10:24:38.084Z,79.57
2024-02-27T10:25:37.955Z,78.41
2024-02-27T10:26:37.954Z,78.47
2024-02-27T10:27:38.008Z,79.90
2024-02-27T10:28:37.993Z,78.61
2024-02-27T10:29:37.912Z,78.30
2024-02-27T10:30:37.957Z,76.53
2024-02-27T10:31:37.900Z,77.72
2024-02-27T10:32:38.010Z,78.38
2024-02-27T10:33:37.985Z,78.07
2024-02-27T10:34:38.137Z,79.60
2024-02-27T10:35:38.095Z,78.95
2024-02-27T10:36:38.887Z,78.34
2024-02-27T10:37:37.817Z,78.07
2024-02-27T10:38:37.845Z,78.31
2024-02-27T10:39:37.897Z,80.05
2024-02-27T10:40:37.835Z,80.25
2024-02-27T10:41:37.782Z,78.96
2024-02-27T10:42:37.840Z,79.68
2024-02-27T10:43:37.773Z,80.29
2024-02-27T10:44:37.791Z,79.88
2024-02-27T10:45:37.768Z,79.47
2024-02-27T10:46:37.738Z,79.27
2024-02-27T10:47:37.768Z,81.31
2024-02-27T10:48:44.057Z,81.62
2024-02-27T10:49:38.765Z,79.84
2024-02-27T10:50:37.746Z,79.60
2024-02-27T10:51:37.922Z,79.50
2024-02-27T10:52:37.693Z,79.46
2024-02-27T10:53:37.647Z,77.93
2024-02-27T10:54:37.701Z,77.42
2024-02-27T10:55:39.657Z,78.03
2024-02-27T10:56:37.626Z,77.90
2024-02-27T10:57:38.155Z,78.20
2024-02-27T10:58:37.684Z,80.94
2024-02-27T10:59:37.584Z,81.01
2024-02-27T11:00:37.671Z,81.21
2024-02-27T11:01:37.670Z,80.02
2024-02-27T11:02:37.552Z,80.60
2024-02-27T11:03:37.590Z,80.60
2024-02-27T11:04:37.810Z,81.10
2024-02-27T11:05:37.623Z,79.84
2024-02-27T11:06:37.605Z,79.09
2024-02-27T11:07:37.574Z,79.80
2024-02-27T11:08:38.148Z,78.20
2024-02-27T11:09:37.523Z,78.65
2024-02-27T11:10:37.490Z,79.88
2024-02-27T11:11:37.458Z,80.02
2024-02-27T11:12:37.501Z,79.98
2024-02-27T11:13:37.441Z,80.22
2024-02-27T11:14:39.240Z,80.36
2024-02-27T11:15:37.497Z,80.40
2024-02-27T11:16:37.436Z,82.35
2024-02-27T11:17:37.426Z,82.45
2024-02-27T11:18:37.504Z,82.14
2024-02-27T11:19:37.467Z,81.15
2024-02-27T11:20:37.933Z,80.94
2024-02-27T11:21:37.380Z,79.88
2024-02-27T11:22:37.374Z,79.64
2024-02-27T11:23:37.332Z,79.70
2024-02-27T11:24:37.336Z,78.96
2024-02-27T11:25:37.307Z,80.05
2024-02-27T11:26:38.649Z,79.88
2024-02-27T11:27:37.349Z,79.94
2024-02-27T11:28:37.279Z,78.86
2024-02-27T11:29:37.253Z,79.23
2024-02-27T11:30:37.358Z,79.33
2024-02-27T11:31:37.236Z,79.13
2024-02-27T11:32:39.079Z,78.52
2024-02-27T11:33:37.336Z,79.23
2024-02-27T11:34:37.558Z,78.61
2024-02-27T11:35:37.199Z,78.65
2024-02-27T11:36:37.231Z,79.27
2024-02-27T11:37:37.181Z,79.78
2024-02-27T11:38:39.108Z,79.47
2024-02-27T11:39:37.284Z,79.98
2024-02-27T11:40:37.202Z,80.29
2024-02-27T11:41:37.128Z,80.39
2024-02-27T11:42:37.343Z,79.84
2024-02-27T11:43:37.123Z,79.88
2024-02-27T11:44:38.718Z,80.29
2024-02-27T11:45:37.161Z,81.31
2024-02-27T11:46:37.325Z,81.15
2024-02-27T11:47:37.097Z,81.10
2024-02-27T11:48:37.175Z,81.29
2024-02-27T11:49:37.321Z,82.21
2024-02-27T11:50:37.337Z,81.96
2024-02-27T11:51:37.130Z,81.49
2024-02-27T11:52:37.019Z,82.00
2024-02-27T11:53:37.014Z,81.70
2024-02-27T11:54:37.077Z,82.62
2024-02-27T11:55:36.987Z,82.82
2024-02-27T11:56:36.974Z,81.59
2024-02-27T11:57:37.018Z,80.67
2024-02-27T11:58:36.970Z,82.00
2024-02-27T11:59:36.919Z,82.48
2024-02-27T12:00:36.944Z,82.57
2024-02-27T12:01:36.930Z,83.09
2024-02-27T12:02:36.910Z,81.59
2024-02-27T12:03:36.983Z,82.00
2024-02-27T12:04:36.954Z,82.37
2024-02-27T12:05:36.858Z,81.08
2024-02-27T12:06:36.845Z,82.51
2024-02-27T12:07:36.940Z,82.48
2024-02-27T12:08:36.860Z,82.41
2024-02-27T12:09:36.861Z,82.37
2024-02-27T12:10:36.846Z,82.03
2024-02-27T12:11:36.854Z,82.13
2024-02-27T12:12:37.120Z,80.60
2024-02-27T12:13:36.803Z,81.24
2024-02-27T12:14:36.770Z,81.21
2024-02-27T12:15:36.795Z,81.79
2024-02-27T12:16:36.806Z,82.09
2024-02-27T12:17:36.744Z,81.44
2024-02-27T12:18:36.945Z,80.42
2024-02-27T12:19:36.871Z,79.57
2024-02-27T12:20:36.699Z,78.54
2024-02-27T12:21:36.725Z,79.16
2024-02-27T12:22:36.719Z,79.87
2024-02-27T12:23:36.689Z,79.87
2024-02-27T12:24:36.701Z,80.18
2024-02-27T12:25:36.637Z,80.65
2024-02-27T12:26:36.648Z,80.04
2024-02-27T12:27:36.827Z,78.09
2024-02-27T12:28:36.656Z,78.23
2024-02-27T12:29:36.596Z,79.19
2024-02-27T12:30:36.622Z,79.39
2024-02-27T12:31:36.588Z,78.03
2024-02-27T12:32:36.644Z,80.42
2024-02-27T12:33:36.688Z,78.78
2024-02-27T12:34:36.636Z,79.70
2024-02-27T12:35:36.531Z,80.32
2024-02-27T12:36:36.671Z,79.66
2024-02-27T12:37:36.519Z,79.97
2024-02-27T12:38:36.498Z,78.68
2024-02-27T12:39:36.562Z,79.64
2024-02-27T12:40:36.506Z,80.46
2024-02-27T12:41:36.466Z,80.66
2024-02-27T12:42:36.531Z,80.15
2024-02-27T12:43:36.439Z,80.15
2024-02-27T12:44:36.449Z,80.76
2024-02-27T12:45:36.453Z,80.11
2024-02-27T12:46:36.438Z,80.21
2024-02-27T12:47:36.496Z,80.73
2024-02-27T12:48:36.516Z,80.83
2024-02-27T12:49:36.500Z,80.32
2024-02-27T12:50:36.371Z,80.21
2024-02-27T12:51:36.448Z,79.91
2024-02-27T12:52:36.359Z,79.80